createdAt,value
2022-09-12T00:02:10.358Z,5.30
2022-09-12T00:04:36.857Z,5.28
2022-09-12T00:07:03.369Z,5.18
2022-09-12T00:09:31.039Z,5.53
2022-09-12T00:11:57.484Z,5.90
2022-09-12T00:14:23.946Z,5.93
2022-09-12T00:16:50.488Z,5.80
2022-09-12T00:19:17.092Z,5.70
2022-09-12T00:21:43.514Z,6.47
2022-09-12T00:24:10.888Z,6.85
2022-09-12T00:26:37.336Z,5.93
2022-09-12T00:29:04.156Z,7.20
2022-09-12T00:31:30.805Z,8.07
2022-09-12T00:33:59.145Z,7.95
2022-09-12T00:36:26.517Z,7.72
2022-09-12T00:38:53.813Z,7.45
2022-09-12T00:41:38.987Z,8.13
2022-09-12T00:44:23.736Z,8.60
2022-09-12T00:46:59.632Z,8.77
2022-09-12T00:49:30.975Z,8.85
2022-09-12T00:54:43.129Z,8.43
2022-09-12T00:57:11.880Z,8.50
2022-09-12T00:59:45.581Z,10.07
2022-09-12T01:02:12.266Z,9.98
2022-09-12T01:04:42.406Z,9.93
2022-09-12T01:07:09.914Z,10.07
2022-09-12T01:09:37.708Z,10.02
2022-09-12T01:12:05.112Z,10.75
2022-09-12T01:14:32.349Z,11.57
2022-09-12T01:16:58.797Z,10.95
2022-09-12T01:19:31.201Z,11.27
2022-09-12T01:22:16.463Z,11.02
2022-09-12T01:24:54.522Z,11.90
2022-09-12T01:27:26.856Z,11.20
2022-09-12T01:30:02.087Z,11.60
2022-09-12T01:32:50.298Z,12.35
2022-09-12T01:35:41.176Z,11.23
2022-09-12T01:38:24.934Z,12.27
2022-09-12T01:41:08.561Z,12.55
2022-09-12T01:44:19.596Z,13.20
2022-09-12T01:46:54.537Z,13.05
2022-09-12T01:49:33.223Z,12.63
2022-09-12T01:52:15.884Z,14.05
2022-09-12T01:54:48.207Z,13.57
2022-09-12T01:57:22.097Z,14.50
2022-09-12T01:59:54.211Z,13.80
2022-09-12T02:02:38.715Z,14.00
2022-09-12T02:05:20.100Z,14.52
2022-09-12T02:07:51.788Z,13.63
2022-09-12T02:10:23.130Z,14.30
2022-09-12T02:15:24.984Z,14.77
2022-09-12T02:17:53.690Z,15.13
2022-09-12T02:20:47.451Z,16.00
2022-09-12T02:23:26.132Z,15.35
2022-09-12T02:25:55.939Z,16.50
2022-09-12T02:28:28.968Z,14.98
2022-09-12T02:31:13.486Z,16.25
2022-09-12T02:33:55.661Z,17.10
2022-09-12T02:36:48.490Z,16.98
2022-09-12T02:39:14.986Z,17.50
2022-09-12T02:41:41.582Z,16.65
2022-09-12T02:44:08.098Z,17.45
2022-09-12T02:46:42.537Z,16.75
2022-09-12T02:49:09.587Z,17.30
2022-09-12T02:51:37.034Z,17.08
2022-09-12T02:54:03.802Z,18.08
2022-09-12T02:56:30.917Z,17.98
2022-09-12T02:59:02.509Z,19.35
2022-09-12T03:01:34.471Z,17.30
2022-09-12T03:04:10.025Z,17.95
2022-09-12T03:07:09.001Z,17.83
2022-09-12T03:09:52.638Z,19.20
2022-09-12T03:12:57.921Z,17.25
2022-09-12T03:15:46.157Z,18.58
2022-09-12T03:18:43.570Z,18.90
2022-09-12T03:21:21.902Z,19.23
2022-09-12T03:24:10.107Z,21.05
2022-09-12T03:26:52.860Z,20.10
2022-09-12T03:29:20.233Z,19.17
2022-09-12T03:31:55.581Z,20.27
2022-09-12T03:34:24.200Z,21.08
2022-09-12T03:36:50.729Z,19.90
2022-09-12T03:39:17.654Z,22.15
2022-09-12T03:41:44.268Z,20.30
2022-09-12T03:44:10.753Z,20.48
2022-09-12T03:46:37.193Z,21.92
2022-09-12T03:49:03.878Z,19.55
2022-09-12T03:51:30.311Z,19.88
2022-09-12T03:53:56.769Z,19.77
2022-09-12T03:56:23.184Z,20.02
2022-09-12T03:58:49.661Z,19.73
2022-09-12T04:01:19.372Z,20.88
2022-09-12T04:03:48.421Z,22.38
2022-09-12T04:06:17.371Z,20.50
2022-09-12T04:08:47.524Z,22.98
2022-09-12T04:11:15.486Z,22.77
2022-09-12T04:13:44.353Z,22.08
2022-09-12T04:16:12.047Z,22.23
2022-09-12T04:18:38.909Z,24.13
2022-09-12T04:21:07.353Z,22.63
2022-09-12T04:23:34.419Z,23.33
2022-09-12T04:26:03.105Z,23.73
2022-09-12T04:28:29.997Z,22.50
2022-09-12T04:30:56.488Z,24.35
2022-09-12T04:33:23.056Z,24.30
2022-09-12T04:35:49.509Z,22.35
2022-09-12T04:38:15.996Z,24.23
2022-09-12T04:40:42.387Z,25.48
2022-09-12T04:43:13.719Z,24.73
2022-09-12T04:45:40.968Z,25.67
2022-09-12T04:48:07.405Z,26.10
2022-09-12T04:50:33.864Z,26.65
2022-09-12T04:53:00.290Z,26.65
2022-09-12T04:55:28.194Z,26.20
2022-09-12T04:57:54.601Z,27.60
2022-09-12T05:00:21.169Z,27.02
2022-09-12T05:02:47.602Z,26.17
2022-09-12T05:05:14.135Z,25.85
2022-09-12T05:07:40.556Z,26.73
2022-09-12T05:10:07.660Z,27.52
2022-09-12T05:12:34.137Z,26.25
2022-09-12T05:15:00.536Z,27.58
2022-09-12T05:17:29.659Z,26.92
2022-09-12T05:19:56.127Z,27.83
2022-09-12T05:22:22.592Z,27.60
2022-09-12T05:24:50.756Z,29.20
2022-09-12T05:27:17.401Z,28.60
2022-09-12T05:29:43.813Z,27.95
2022-09-12T05:32:10.315Z,28.60
2022-09-12T05:34:36.747Z,27.73
2022-09-12T05:37:03.331Z,26.67
2022-09-12T05:39:29.731Z,27.02
2022-09-12T05:41:56.218Z,27.67
2022-09-12T05:44:22.665Z,27.33
2022-09-12T05:46:49.169Z,27.25
2022-09-12T05:49:15.695Z,27.83
2022-09-12T05:51:44.926Z,28.17
2022-09-12T05:54:13.692Z,28.88
2022-09-12T05:56:42.613Z,27.95
2022-09-12T05:59:20.497Z,27.83
2022-09-12T06:01:47.542Z,27.15
2022-09-12T06:04:14.565Z,27.40
2022-09-12T06:06:43.788Z,27.10
2022-09-12T06:09:11.336Z,25.58
2022-09-12T06:11:39.319Z,26.73
2022-09-12T06:14:05.755Z,25.40
2022-09-12T06:16:33.897Z,26.20
2022-09-12T06:19:03.630Z,23.70
2022-09-12T06:21:30.501Z,24.90
2022-09-12T06:23:57.950Z,23.70
2022-09-12T06:26:24.799Z,22.50
2022-09-12T06:28:52.530Z,22.33
2022-09-12T06:31:21.336Z,23.77
2022-09-12T06:33:50.642Z,21.63
2022-09-12T06:36:20.181Z,20.95
2022-09-12T06:38:46.760Z,21.98
2022-09-12T06:41:13.650Z,22.05
2022-09-12T06:43:41.736Z,19.60
2022-09-12T06:46:09.719Z,20.75
2022-09-12T06:48:41.030Z,20.05
2022-09-12T06:51:17.251Z,18.85
2022-09-12T06:53:44.976Z,19.77
2022-09-12T06:56:12.911Z,18.50
2022-09-12T06:58:40.521Z,18.27
2022-09-12T07:01:18.335Z,19.13
2022-09-12T07:03:49.923Z,17.52
2022-09-12T07:06:18.526Z,18.02
2022-09-12T07:08:45.799Z,16.95
2022-09-12T07:11:21.218Z,17.70
2022-09-12T07:13:53.090Z,19.52
2022-09-12T07:16:20.272Z,16.77
2022-09-12T07:19:00.763Z,17.48
2022-09-12T07:21:28.111Z,16.92
2022-09-12T07:23:55.304Z,17.45
2022-09-12T07:26:21.818Z,17.17
2022-09-12T07:28:52.079Z,16.08
2022-09-12T07:31:19.583Z,17.05
2022-09-12T07:33:46.930Z,15.43
2022-09-12T07:36:16.702Z,16.15
2022-09-12T07:38:44.265Z,15.73
2022-09-12T07:41:15.691Z,14.75
2022-09-12T07:43:42.247Z,16.15
2022-09-12T07:46:09.262Z,13.65
2022-09-12T07:48:36.434Z,12.63
2022-09-12T07:51:08.248Z,11.73
2022-09-12T07:53:38.148Z,8.95
2022-09-12T07:56:05.851Z,9.27
2022-09-12T07:58:34.228Z,8.90
2022-09-12T08:01:05.196Z,7.60
2022-09-12T08:03:31.828Z,6.63
2022-09-12T08:06:08.675Z,6.63
2022-09-12T08:08:36.391Z,5.47
2022-09-12T08:11:05.734Z,5.75
2022-09-12T08:13:33.592Z,5.50
2022-09-12T08:16:02.275Z,5.38
2022-09-12T08:18:30.287Z,5.18
2022-09-12T08:21:04.414Z,5.82
2022-09-12T08:23:31.288Z,6.22
2022-09-12T08:26:05.941Z,5.43
2022-09-12T08:28:35.887Z,5.63
2022-09-12T08:31:05.041Z,5.97
2022-09-12T08:33:32.453Z,5.72
2022-09-12T08:36:04.956Z,5.68
2022-09-12T08:38:32.315Z,5.57
2022-09-12T08:41:13.913Z,5.63
2022-09-12T08:43:56.110Z,5.95
2022-09-12T08:46:27.366Z,6.22
2022-09-12T08:48:57.280Z,6.30
2022-09-12T08:51:24.824Z,5.95
2022-09-12T08:53:53.302Z,5.75
2022-09-12T08:56:19.919Z,4.95
2022-09-12T08:58:46.371Z,5.35
2022-09-12T09:01:37.360Z,4.68
2022-09-12T09:04:45.206Z,4.47
2022-09-12T09:07:42.003Z,4.65
2022-09-12T09:10:28.457Z,4.68
2022-09-12T09:13:28.411Z,4.60
2022-09-12T09:16:32.171Z,4.15
2022-09-12T09:19:02.638Z,4.30
2022-09-12T09:21:49.101Z,4.63
2022-09-12T09:24:21.573Z,3.70
2022-09-12T09:27:00.803Z,3.78
2022-09-12T09:29:37.277Z,3.97
2022-09-12T09:32:12.090Z,3.15
2022-09-12T09:34:39.759Z,3.05
2022-09-12T09:37:06.141Z,4.30
2022-09-12T09:40:02.399Z,4.20
2022-09-12T09:42:47.700Z,2.90
2022-09-12T09:45:20.746Z,2.75
2022-09-12T09:47:54.213Z,3.38
2022-09-12T09:50:20.948Z,2.58
2022-09-12T09:52:49.176Z,2.67
2022-09-12T09:55:20.936Z,2.53
2022-09-12T09:57:47.526Z,2.50
2022-09-12T10:00:22.999Z,2.00
2022-09-12T10:03:00.158Z,2.40
2022-09-12T10:05:26.815Z,2.80
2022-09-12T10:07:53.324Z,2.60
2022-09-12T10:10:20.746Z,2.95
2022-09-12T10:12:47.315Z,3.17
2022-09-12T10:15:20.391Z,2.50
2022-09-12T10:17:50.988Z,2.70
2022-09-12T10:20:46.455Z,2.55
2022-09-12T10:23:18.707Z,2.05
2022-09-12T10:25:54.144Z,2.13
2022-09-12T10:28:35.907Z,1.80
2022-09-12T10:31:02.599Z,2.05
2022-09-12T10:33:29.826Z,2.60
2022-09-12T10:35:56.597Z,1.88
2022-09-12T10:38:28.230Z,2.58
2022-09-12T10:40:58.440Z,2.20
2022-09-12T10:43:40.067Z,2.50
2022-09-12T10:46:15.597Z,2.28
2022-09-12T10:48:43.497Z,2.17
2022-09-12T10:51:27.283Z,2.13
2022-09-12T10:53:57.340Z,2.20
2022-09-12T10:56:28.932Z,1.83
2022-09-12T10:59:32.989Z,1.70
2022-09-12T11:02:38.120Z,1.90
2022-09-12T11:05:07.551Z,1.40
2022-09-12T11:07:45.265Z,1.40
2022-09-12T11:10:35.613Z,1.50
2022-09-12T11:13:15.259Z,1.95
2022-09-12T11:15:56.853Z,1.48
2022-09-12T11:18:23.304Z,1.70
2022-09-12T11:20:49.683Z,1.48
2022-09-12T11:23:34.217Z,1.30
2022-09-12T11:26:07.801Z,1.35
2022-09-12T11:28:56.348Z,1.38
2022-09-12T11:31:38.154Z,1.40
2022-09-12T11:34:10.407Z,1.40
2022-09-12T11:36:48.866Z,1.10
2022-09-12T11:39:38.603Z,1.08
2022-09-12T11:42:12.893Z,1.30
2022-09-12T11:44:52.947Z,1.05
2022-09-12T11:47:19.951Z,1.20
2022-09-12T11:49:50.958Z,1.00
2022-09-12T11:52:23.752Z,1.08
2022-09-12T11:55:15.846Z,1.20
2022-09-12T11:57:49.698Z,1.05
2022-09-12T12:00:18.286Z,1.20
2022-09-12T12:03:06.286Z,1.20
2022-09-12T12:05:57.359Z,1.48
2022-09-12T12:08:26.011Z,1.00
2022-09-12T12:11:01.940Z,1.27
2022-09-12T12:13:35.586Z,1.13
2022-09-12T12:16:07.862Z,1.13
2022-09-12T12:18:39.015Z,1.10
2022-09-12T12:21:35.967Z,1.23
2022-09-12T12:24:08.173Z,1.30
2022-09-12T12:26:40.671Z,1.20
2022-09-12T12:29:41.527Z,1.23
2022-09-12T12:32:09.876Z,1.30
2022-09-12T12:34:39.141Z,1.23
2022-09-12T12:37:20.716Z,1.42
2022-09-12T12:39:47.202Z,1.30
2022-09-12T12:42:35.241Z,1.40
2022-09-12T12:45:03.373Z,1.50
2022-09-12T12:47:41.193Z,1.30
2022-09-12T12:50:12.048Z,1.40
2022-09-12T12:55:27.944Z,1.50
2022-09-12T12:57:56.497Z,1.63
2022-09-12T13:00:25.721Z,1.42
2022-09-12T13:03:04.399Z,1.45
2022-09-12T13:05:40.083Z,1.88
2022-09-12T13:08:31.639Z,1.55
2022-09-12T13:11:02.538Z,1.20
2022-09-12T13:13:50.313Z,1.40
2022-09-12T13:16:38.409Z,1.58
2022-09-12T13:19:17.574Z,1.15
2022-09-12T13:22:00.335Z,1.20
2022-09-12T13:24:26.947Z,1.30
2022-09-12T13:26:54.328Z,1.10
2022-09-12T13:29:23.541Z,1.08
2022-09-12T13:31:55.343Z,1.00
2022-09-12T13:34:37.155Z,1.27
2022-09-12T13:37:15.902Z,1.20
2022-09-12T13:39:49.188Z,1.23
2022-09-12T13:42:33.711Z,1.27
2022-09-12T13:45:11.333Z,1.00
2022-09-12T13:47:45.976Z,1.30
2022-09-12T13:50:37.020Z,1.55
2022-09-12T13:53:14.637Z,1.30
2022-09-12T13:55:45.206Z,1.10
2022-09-12T13:58:25.862Z,1.10
2022-09-12T14:01:07.241Z,1.17
2022-09-12T14:03:58.768Z,0.88
2022-09-12T14:06:26.091Z,1.13
2022-09-12T14:08:52.536Z,1.02
2022-09-12T14:11:25.824Z,0.80
2022-09-12T14:13:52.882Z,1.20
2022-09-12T14:16:20.219Z,1.30
2022-09-12T14:18:48.180Z,1.27
2022-09-12T14:21:36.353Z,1.27
2022-09-12T14:24:07.397Z,1.73
2022-09-12T14:26:36.659Z,1.33
2022-09-12T14:29:06.341Z,1.00
2022-09-12T14:31:36.669Z,0.90
2022-09-12T14:34:09.261Z,1.15
2022-09-12T14:36:41.760Z,1.45
2022-09-12T14:39:16.696Z,1.10
2022-09-12T14:41:43.881Z,1.05
2022-09-12T14:44:25.980Z,1.27
2022-09-12T14:46:52.600Z,1.23
2022-09-12T14:49:31.399Z,1.30
2022-09-12T14:52:00.302Z,1.25
2022-09-12T14:54:32.741Z,1.10
2022-09-12T14:57:17.595Z,1.00
2022-09-12T14:59:44.123Z,1.30
2022-09-12T15:02:13.333Z,1.13
2022-09-12T15:04:52.304Z,1.13
2022-09-12T15:07:31.044Z,1.20
2022-09-12T15:09:59.777Z,0.90
2022-09-12T15:12:26.368Z,1.00
2022-09-12T15:14:53.852Z,1.00
2022-09-12T15:17:20.293Z,1.10
2022-09-12T15:19:46.736Z,1.00
2022-09-12T15:22:13.767Z,0.90
2022-09-12T15:24:40.248Z,1.35
2022-09-12T15:27:11.542Z,0.80
2022-09-12T15:29:39.020Z,0.90
2022-09-12T15:32:06.617Z,1.10
2022-09-12T15:34:33.449Z,1.17
2022-09-12T15:36:59.943Z,1.13
2022-09-12T15:39:26.435Z,1.30
2022-09-12T15:41:53.059Z,1.20
2022-09-12T15:44:19.487Z,0.90
2022-09-12T15:46:46.629Z,1.38
2022-09-12T15:49:13.141Z,1.40
2022-09-12T15:51:39.663Z,0.85
2022-09-12T15:54:06.320Z,1.13
2022-09-12T15:56:32.749Z,1.17
2022-09-12T15:59:00.240Z,1.30
2022-09-12T16:01:28.449Z,1.52
2022-09-12T16:03:55.194Z,1.58
2022-09-12T16:06:22.099Z,1.30
2022-09-12T16:08:48.776Z,1.20
2022-09-12T16:11:21.165Z,1.58
2022-09-12T16:13:47.836Z,1.35
2022-09-12T16:16:14.359Z,1.33
2022-09-12T16:18:41.905Z,1.40
2022-09-12T16:21:14.049Z,1.50
2022-09-12T16:23:45.939Z,1.80
2022-09-12T16:26:12.862Z,1.23
2022-09-12T16:28:39.539Z,1.58
2022-09-12T16:31:07.652Z,1.80
2022-09-12T16:33:34.676Z,1.67
2022-09-12T16:36:06.492Z,1.52
2022-09-12T16:38:33.477Z,1.50
2022-09-12T16:41:01.450Z,1.50
2022-09-12T16:43:27.980Z,1.58
2022-09-12T16:46:09.718Z,1.60
2022-09-12T16:48:36.344Z,1.40
2022-09-12T16:51:05.321Z,1.63
2022-09-12T16:53:33.125Z,1.40
2022-09-12T16:55:59.729Z,1.80
2022-09-12T16:58:26.441Z,1.48
2022-09-12T17:01:04.812Z,1.52
2022-09-12T17:03:31.450Z,1.55
2022-09-12T17:06:03.944Z,1.45
2022-09-12T17:08:32.659Z,1.60
2022-09-12T17:11:04.906Z,1.67
2022-09-12T17:13:52.967Z,2.03
2022-09-12T17:16:19.409Z,1.88
2022-09-12T17:18:46.257Z,1.33
2022-09-12T17:21:13.677Z,1.60
2022-09-12T17:23:40.867Z,1.67
2022-09-12T17:26:09.265Z,1.73
2022-09-12T17:28:36.739Z,1.38
2022-09-12T17:31:06.578Z,1.63
2022-09-12T17:33:33.500Z,1.50
2022-09-12T17:36:04.750Z,1.65
2022-09-12T17:38:32.490Z,1.92
2022-09-12T17:41:05.555Z,1.98
2022-09-12T17:43:32.020Z,2.00
2022-09-12T17:45:58.503Z,1.98
2022-09-12T17:48:25.029Z,1.75
2022-09-12T17:50:51.634Z,1.90
2022-09-12T17:53:18.110Z,1.98
2022-09-12T17:55:44.665Z,2.10
2022-09-12T17:58:11.208Z,2.15
2022-09-12T18:00:37.658Z,2.42
2022-09-12T18:03:04.207Z,2.97
2022-09-12T18:05:30.687Z,2.40
2022-09-12T18:07:57.288Z,3.00
2022-09-12T18:10:25.423Z,2.40
2022-09-12T18:12:51.900Z,2.83
2022-09-12T18:15:18.379Z,2.03
2022-09-12T18:17:44.908Z,2.38
2022-09-12T18:20:11.333Z,2.15
2022-09-12T18:22:37.808Z,1.98
2022-09-12T18:25:04.516Z,2.30
2022-09-12T18:27:30.990Z,2.03
2022-09-12T18:30:19.642Z,1.90
2022-09-12T18:32:43.888Z,1.95
2022-09-12T18:35:10.328Z,2.25
2022-09-12T18:37:36.789Z,2.08
2022-09-12T18:40:04.415Z,2.40
2022-09-12T18:42:30.929Z,2.03
2022-09-12T18:44:57.373Z,2.58
2022-09-12T18:47:24.116Z,2.25
2022-09-12T18:49:51.057Z,2.55
2022-09-12T18:52:19.107Z,2.42
2022-09-12T18:54:45.724Z,2.15
2022-09-12T18:57:12.215Z,2.50
2022-09-12T18:59:38.644Z,3.20
2022-09-12T19:02:05.137Z,5.18
2022-09-12T19:04:31.648Z,4.82
2022-09-12T19:06:58.335Z,6.00
2022-09-12T19:09:24.981Z,6.80
2022-09-12T19:11:51.440Z,6.30
2022-09-12T19:14:22.780Z,6.28
2022-09-12T19:16:50.824Z,5.28
2022-09-12T19:19:19.166Z,4.60
2022-09-12T19:21:46.014Z,4.75
2022-09-12T19:24:12.508Z,4.10
2022-09-12T19:26:39.802Z,3.20
2022-09-12T19:29:07.473Z,3.65
2022-09-12T19:31:34.081Z,3.17
2022-09-12T19:34:02.272Z,4.13
2022-09-12T19:36:46.245Z,3.85
2022-09-12T19:39:13.934Z,3.70
2022-09-12T19:41:40.366Z,3.50
2022-09-12T19:44:06.894Z,4.18
2022-09-12T19:46:33.478Z,3.42
2022-09-12T19:49:00.034Z,3.85
2022-09-12T19:51:26.482Z,3.60
2022-09-12T19:53:53.323Z,3.92
2022-09-12T19:56:20.167Z,4.15
2022-09-12T19:58:53.479Z,3.60
2022-09-12T20:01:24.489Z,3.92
2022-09-12T20:03:51.027Z,3.47
2022-09-12T20:06:18.226Z,3.42
2022-09-12T20:08:45.212Z,4.15
2022-09-12T20:11:14.748Z,4.22
2022-09-12T20:13:41.677Z,4.35
2022-09-12T20:16:18.916Z,4.00
2022-09-12T20:18:47.688Z,3.97
2022-09-12T20:21:19.395Z,3.95
2022-09-12T20:23:46.738Z,4.60
2022-09-12T20:26:13.607Z,4.63
2022-09-12T20:28:41.217Z,4.45
2022-09-12T20:31:11.504Z,4.28
2022-09-12T20:33:38.344Z,4.95
2022-09-12T20:36:07.716Z,4.60
2022-09-12T20:38:34.877Z,4.45
2022-09-12T20:41:07.278Z,4.75
2022-09-12T20:43:33.725Z,4.72
2022-09-12T20:46:05.084Z,4.22
2022-09-12T20:48:31.592Z,4.88
2022-09-12T20:50:59.227Z,4.70
2022-09-12T20:53:25.899Z,4.63
2022-09-12T20:55:53.326Z,4.78
2022-09-12T20:58:21.131Z,4.50
2022-09-12T21:00:47.841Z,5.20
2022-09-12T21:03:15.705Z,4.70
2022-09-12T21:05:46.448Z,5.07
2022-09-12T21:08:13.927Z,4.28
2022-09-12T21:10:41.927Z,4.10
2022-09-12T21:13:09.623Z,5.15
2022-09-12T21:15:39.818Z,4.60
2022-09-12T21:18:06.996Z,4.75
2022-09-12T21:20:33.887Z,4.75
2022-09-12T21:23:00.376Z,5.07
2022-09-12T21:25:26.897Z,5.07
2022-09-12T21:27:53.361Z,5.30
2022-09-12T21:30:19.773Z,5.00
2022-09-12T21:32:46.245Z,4.63
2022-09-12T21:35:12.674Z,4.30
2022-09-12T21:37:39.134Z,4.38
2022-09-12T21:40:06.050Z,5.18
2022-09-12T21:42:32.545Z,4.43
2022-09-12T21:44:58.977Z,4.50
2022-09-12T21:47:25.469Z,4.65
2022-09-12T21:49:51.885Z,4.20
2022-09-12T21:52:18.367Z,4.05
2022-09-12T21:54:44.817Z,4.65
2022-09-12T21:57:11.254Z,4.65
2022-09-12T21:59:37.672Z,4.43
2022-09-12T22:02:04.213Z,4.22
2022-09-12T22:04:30.694Z,4.93
2022-09-12T22:06:57.147Z,4.50
2022-09-12T22:09:23.586Z,4.68
2022-09-12T22:11:50.048Z,4.90
2022-09-12T22:14:16.492Z,4.85
2022-09-12T22:16:43.070Z,4.75
2022-09-12T22:19:09.515Z,4.88
2022-09-12T22:21:35.993Z,4.78
2022-09-12T22:24:02.718Z,4.68
2022-09-12T22:26:30.082Z,5.07
2022-09-12T22:28:56.529Z,4.93
2022-09-12T22:31:23.115Z,4.50
2022-09-12T22:33:49.608Z,4.97
2022-09-12T22:36:16.073Z,5.57
2022-09-12T22:38:42.633Z,4.85
2022-09-12T22:41:11.421Z,4.70
2022-09-12T22:43:38.213Z,4.60
2022-09-12T22:46:09.248Z,4.45
2022-09-12T22:51:02.302Z,4.60
2022-09-12T22:53:28.771Z,4.90
2022-09-12T22:55:55.218Z,4.63
2022-09-12T22:58:21.744Z,4.55
2022-09-12T23:00:51.228Z,5.07
2022-09-12T23:03:19.145Z,4.97
2022-09-12T23:05:46.939Z,4.90
2022-09-12T23:08:14.671Z,5.38
2022-09-12T23:10:41.173Z,6.07
2022-09-12T23:13:07.656Z,5.65
2022-09-12T23:15:34.066Z,5.15
2022-09-12T23:18:00.518Z,5.20
2022-09-12T23:20:27.193Z,5.00
2022-09-12T23:22:53.725Z,5.40
2022-09-12T23:25:20.859Z,4.68
2022-09-12T23:27:47.316Z,4.38
2022-09-12T23:30:13.872Z,4.30
2022-09-12T23:32:40.351Z,4.50
2022-09-12T23:35:06.998Z,4.85
2022-09-12T23:37:33.505Z,4.70
2022-09-12T23:39:59.947Z,4.57
2022-09-12T23:42:26.451Z,5.75
2022-09-12T23:44:52.876Z,5.65
2022-09-12T23:47:19.342Z,5.70
2022-09-12T23:49:45.786Z,5.10
2022-09-12T23:52:12.307Z,5.75
2022-09-12T23:54:38.750Z,5.30
2022-09-12T23:57:05.215Z,5.07
2022-09-12T23:59:31.681Z,5.60
